Time;durP1;ratioP1;P1;durP2;ratioP2;P2;SDS_P1;SDS_P2;PMS_P1;PMS_P2;Temp;Humidity;BMP_temperature;BMP_pressure;BME280_temperature;BME280_humidity;BME280_pressure;Samples;Min_cycle;Max_cycle;Signal;HPM_P1;HPM_P2
2021/07/23 00:00:38;;;;;;;9.05;8.13;;;16.80;76.00;;;;;;5097986;28;20024;-77
2021/07/23 00:03:04;;;;;;;10.05;8.30;;;16.70;76.10;;;;;;5099232;28;20089;-78
2021/07/23 00:05:29;;;;;;;9.68;7.40;;;16.70;76.40;;;;;;5099367;28;20028;-77
2021/07/23 00:07:55;;;;;;;11.30;8.68;;;16.70;76.50;;;;;;5098951;28;20031;-76
2021/07/23 00:10:21;;;;;;;10.38;8.82;;;16.60;76.60;;;;;;5101764;28;20040;-77
2021/07/23 00:12:46;;;;;;;9.95;7.80;;;16.60;76.70;;;;;;5098658;28;20352;-77
2021/07/23 00:15:13;;;;;;;11.93;8.18;;;16.60;76.80;;;;;;5095783;28;20118;-77
2021/07/23 00:17:39;;;;;;;9.43;8.00;;;16.60;77.00;;;;;;5096592;28;20456;-78
2021/07/23 00:20:06;;;;;;;12.35;8.95;;;16.60;77.00;;;;;;5095117;28;20024;-78
2021/07/23 00:22:32;;;;;;;10.02;8.38;;;16.60;77.20;;;;;;5096074;28;20036;-76
2021/07/23 00:24:57;;;;;;;9.23;7.82;;;16.50;77.30;;;;;;5094713;28;20024;-76
2021/07/23 00:27:23;;;;;;;12.98;8.73;;;16.40;77.30;;;;;;5060972;28;20403;-77
2021/07/23 00:29:48;;;;;;;10.93;7.78;;;16.30;77.50;;;;;;5095902;28;20089;-77
2021/07/23 00:32:14;;;;;;;8.77;7.45;;;16.20;77.80;;;;;;5077474;28;20080;-77
2021/07/23 00:34:40;;;;;;;10.10;7.95;;;16.10;78.20;;;;;;5096084;28;20049;-82
2021/07/23 00:37:05;;;;;;;12.20;9.15;;;16.00;78.70;;;;;;5094496;28;20062;-76
2021/07/23 00:39:31;;;;;;;11.35;8.93;;;15.90;79.00;;;;;;5077313;28;20514;-75
2021/07/23 00:41:57;;;;;;;9.93;8.68;;;15.90;79.00;;;;;;5077546;28;20020;-76
2021/07/23 00:44:22;;;;;;;10.27;9.05;;;16.00;79.10;;;;;;5077254;28;20038;-76
2021/07/23 00:46:48;;;;;;;10.98;8.25;;;16.00;79.00;;;;;;5093913;28;20495;-76
2021/07/23 00:49:14;;;;;;;11.23;8.90;;;16.00;78.90;;;;;;5095808;28;20375;-76
2021/07/23 00:51:40;;;;;;;9.55;8.15;;;16.00;78.90;;;;;;5095576;28;20532;-83
2021/07/23 00:54:07;;;;;;;10.25;8.95;;;16.00;79.00;;;;;;5095479;28;20039;-76
2021/07/23 00:56:33;;;;;;;15.48;8.88;;;15.90;79.30;;;;;;5094197;28;20519;-75
2021/07/23 00:58:59;;;;;;;10.25;8.70;;;15.90;79.50;;;;;;5094072;28;20073;-77
2021/07/23 01:01:25;;;;;;;10.43;9.32;;;15.80;79.70;;;;;;5077582;28;20125;-76
2021/07/23 01:03:51;;;;;;;9.60;8.48;;;15.70;79.80;;;;;;5094180;28;20024;-76
2021/07/23 01:06:17;;;;;;;10.40;8.55;;;15.70;80.00;;;;;;5077074;28;20118;-76
2021/07/23 01:08:42;;;;;;;11.35;9.18;;;15.60;80.20;;;;;;5093884;28;20025;-81
2021/07/23 01:11:11;;;;;;;10.40;8.75;;;15.50;80.50;;;;;;5094721;28;20031;-76
2021/07/23 01:13:38;;;;;;;10.45;8.52;;;15.40;80.90;;;;;;5093916;28;20170;-77
2021/07/23 01:16:04;;;;;;;10.25;9.25;;;15.40;81.00;;;;;;5077124;28;20016;-76
2021/07/23 01:18:30;;;;;;;10.52;8.68;;;15.40;81.10;;;;;;5093717;28;20062;-77
2021/07/23 01:20:57;;;;;;;11.38;9.07;;;15.40;81.10;;;;;;5093917;28;20028;-77
2021/07/23 01:23:34;;;;;;;10.38;8.90;;;15.40;81.10;;;;;;5093854;28;20360;-77
2021/07/23 01:26:01;;;;;;;11.07;9.27;;;15.40;81.20;;;;;;5094960;28;20064;-77
2021/07/23 01:28:30;;;;;;;11.30;9.25;;;15.40;81.20;;;;;;5076515;28;20089;-76
2021/07/23 01:30:58;;;;;;;9.55;8.48;;;15.40;81.40;;;;;;5093212;28;20048;-77
2021/07/23 01:33:27;;;;;;;11.15;9.10;;;15.30;81.30;;;;;;5076980;28;20047;-78
2021/07/23 01:35:53;;;;;;;11.63;8.45;;;15.20;81.80;;;;;;5093632;28;20090;-76
2021/07/23 01:38:22;;;;;;;9.98;8.95;;;15.10;82.00;;;;;;5093950;28;20044;-76
2021/07/23 01:40:48;;;;;;;12.15;9.43;;;15.10;82.10;;;;;;5094638;28;20107;-77
2021/07/23 01:43:15;;;;;;;11.30;10.05;;;15.00;82.40;;;;;;5093115;28;20107;-76
2021/07/23 01:45:41;;;;;;;17.15;9.30;;;15.10;82.50;;;;;;5093523;28;20028;-77
2021/07/23 01:48:07;;;;;;;9.93;8.93;;;15.10;82.50;;;;;;5093888;28;20027;-77
2021/07/23 01:50:33;;;;;;;11.25;10.05;;;15.00;82.50;;;;;;5093973;28;20052;-77
2021/07/23 01:52:58;;;;;;;11.07;9.18;;;15.00;82.80;;;;;;5077032;28;20400;-76
2021/07/23 01:55:24;;;;;;;11.93;10.18;;;15.00;82.70;;;;;;5059404;28;20027;-76
2021/07/23 01:57:50;;;;;;;12.52;9.85;;;15.00;82.90;;;;;;5076111;28;20108;-77
2021/07/23 02:00:15;;;;;;;11.40;9.90;;;14.90;83.00;;;;;;5059941;28;20055;-76
2021/07/23 02:02:42;;;;;;;12.30;9.57;;;15.00;83.00;;;;;;5059380;28;20451;-76
2021/07/23 02:05:08;;;;;;;11.52;10.05;;;14.90;82.90;;;;;;5093214;28;20031;-76
2021/07/23 02:07:34;;;;;;;13.18;9.68;;;14.80;83.30;;;;;;5094323;28;20116;-76
2021/07/23 02:10:00;;;;;;;11.57;9.90;;;14.80;83.40;;;;;;5076131;28;20053;-77
2021/07/23 02:12:26;;;;;;;11.52;10.20;;;14.70;83.50;;;;;;5094168;28;20028;-76
2021/07/23 02:14:52;;;;;;;12.13;10.18;;;14.70;83.60;;;;;;5092711;28;20085;-77
2021/07/23 02:17:17;;;;;;;12.38;10.18;;;14.60;83.90;;;;;;5075683;28;20094;-76
2021/07/23 02:19:43;;;;;;;10.95;9.65;;;14.60;84.00;;;;;;5092973;28;20020;-76
2021/07/23 02:22:09;;;;;;;11.35;10.25;;;14.60;84.10;;;;;;5075802;28;20035;-77
2021/07/23 02:24:34;;;;;;;10.80;9.70;;;14.60;84.40;;;;;;5092843;28;20107;-76
2021/07/23 02:27:00;;;;;;;12.98;10.82;;;14.60;84.30;;;;;;5075458;28;20135;-77
2021/07/23 02:29:28;;;;;;;11.38;10.18;;;14.60;84.40;;;;;;5092345;28;20054;-77
2021/07/23 02:31:54;;;;;;;15.10;10.80;;;14.60;84.50;;;;;;5092476;28;20063;-77
2021/07/23 02:34:20;;;;;;;16.23;10.32;;;14.40;84.70;;;;;;5075811;28;20060;-77
2021/07/23 02:36:45;;;;;;;11.55;10.18;;;14.30;84.90;;;;;;5092363;28;20036;-77
2021/07/23 02:39:11;;;;;;;12.00;9.95;;;14.30;85.30;;;;;;5074746;28;20495;-77
2021/07/23 02:41:36;;;;;;;13.85;11.80;;;14.30;85.40;;;;;;5092260;28;20039;-77
2021/07/23 02:44:02;;;;;;;17.42;11.32;;;14.30;85.40;;;;;;5092313;28;20048;-77
2021/07/23 02:46:29;;;;;;;14.35;10.40;;;14.20;85.60;;;;;;5093849;28;20107;-77
2021/07/23 02:48:55;;;;;;;13.93;11.13;;;14.10;85.70;;;;;;5092247;28;20455;-83
2021/07/23 02:51:21;;;;;;;14.15;11.57;;;14.20;85.80;;;;;;5092139;28;20040;-77
2021/07/23 02:53:46;;;;;;;12.93;10.63;;;14.20;85.80;;;;;;5093162;28;20031;-76
2021/07/23 02:56:12;;;;;;;13.48;10.75;;;14.10;85.80;;;;;;5075250;28;20027;-77
2021/07/23 02:58:42;;;;;;;14.75;12.02;;;14.20;85.90;;;;;;5093267;28;20495;-77
2021/07/23 03:01:08;;;;;;;13.93;10.70;;;14.20;85.90;;;;;;5093387;28;20044;-76
2021/07/23 03:03:35;;;;;;;12.45;11.15;;;14.30;85.80;;;;;;5092136;28;20031;-76
2021/07/23 03:06:00;;;;;;;13.00;10.95;;;14.30;85.70;;;;;;5075341;28;20493;-77
2021/07/23 03:08:27;;;;;;;12.30;10.98;;;14.20;85.70;;;;;;5092686;28;20064;-77
2021/07/23 03:10:53;;;;;;;14.02;11.93;;;14.20;85.90;;;;;;5075239;28;20330;-77
2021/07/23 03:13:21;;;;;;;13.50;11.15;;;14.20;86.00;;;;;;5075272;28;20039;-77
2021/07/23 03:15:47;;;;;;;12.20;10.88;;;14.30;86.00;;;;;;5091972;28;20388;-77
2021/07/23 03:18:12;;;;;;;15.70;11.52;;;14.20;86.00;;;;;;5093717;28;20028;-77
2021/07/23 03:20:38;;;;;;;12.65;10.95;;;14.20;86.00;;;;;;5091961;28;20115;-77
2021/07/23 03:23:05;;;;;;;12.32;10.35;;;14.30;86.20;;;;;;5075158;28;20036;-77
2021/07/23 03:25:31;;;;;;;11.88;10.65;;;14.40;86.00;;;;;;5092989;28;20099;-78
2021/07/23 03:27:56;;;;;;;13.18;11.23;;;14.50;86.00;;;;;;5092860;28;20532;-81
2021/07/23 03:30:22;;;;;;;11.95;10.60;;;14.60;85.60;;;;;;5091867;28;20077;-77
2021/07/23 03:32:48;;;;;;;12.05;10.00;;;14.60;85.30;;;;;;5075149;28;20479;-77
2021/07/23 03:35:13;;;;;;;13.85;10.52;;;14.60;85.40;;;;;;5092470;28;20440;-77
2021/07/23 03:37:40;;;;;;;16.33;10.85;;;14.70;85.10;;;;;;5092538;28;20024;-77
2021/07/23 03:40:06;;;;;;;13.68;11.02;;;14.70;85.00;;;;;;5091742;28;20025;-77
2021/07/23 03:42:32;;;;;;;13.55;10.48;;;14.70;85.20;;;;;;5074896;28;20384;-77
2021/07/23 03:44:59;;;;;;;12.60;11.27;;;14.70;84.80;;;;;;5058367;28;20028;-77
2021/07/23 03:47:24;;;;;;;19.33;11.00;;;14.60;84.70;;;;;;5091648;28;20028;-77
2021/07/23 03:49:50;;;;;;;12.90;10.73;;;14.60;84.80;;;;;;5077096;28;20165;-77
2021/07/23 03:52:16;;;;;;;13.15;11.57;;;14.50;84.90;;;;;;5096495;28;20081;-77
2021/07/23 03:54:41;;;;;;;13.55;11.52;;;14.50;85.10;;;;;;5078798;28;20532;-77
2021/07/23 03:57:07;;;;;;;12.57;10.98;;;14.50;85.00;;;;;;5096741;28;20040;-82
2021/07/23 03:59:33;;;;;;;12.32;10.85;;;14.50;85.20;;;;;;5095349;28;20036;-77
2021/07/23 04:01:59;;;;;;;15.07;12.27;;;14.50;85.10;;;;;;5096608;28;20103;-76
2021/07/23 04:04:25;;;;;;;13.40;10.68;;;14.50;85.10;;;;;;5078591;28;20571;-77
2021/07/23 04:06:59;;;;;;;12.95;10.77;;;14.50;85.00;;;;;;5096544;28;20482;-77
2021/07/23 04:09:28;;;;;;;13.43;11.70;;;14.60;85.50;;;;;;5095210;28;20123;-77
2021/07/23 04:11:54;;;;;;;13.55;11.52;;;14.70;84.90;;;;;;5096529;28;20118;-77
2021/07/23 04:14:21;;;;;;;13.15;11.65;;;14.70;84.50;;;;;;5062397;28;20043;-76
2021/07/23 04:16:47;;;;;;;14.82;11.63;;;14.70;84.30;;;;;;5095810;28;20031;-77
2021/07/23 04:19:13;;;;;;;14.98;12.07;;;14.70;84.40;;;;;;5095128;28;20020;-77
2021/07/23 04:21:39;;;;;;;14.98;12.18;;;14.60;84.30;;;;;;5078397;28;20067;-76
2021/07/23 04:24:08;;;;;;;14.30;11.57;;;14.50;84.50;;;;;;5094792;28;20032;-79
2021/07/23 04:26:34;;;;;;;15.13;11.75;;;14.40;84.80;;;;;;5095904;28;20467;-75
2021/07/23 04:29:00;;;;;;;14.55;12.15;;;14.30;85.20;;;;;;5096548;28;20024;-77
2021/07/23 04:31:26;;;;;;;13.95;11.85;;;14.40;85.30;;;;;;5094903;28;20092;-76
2021/07/23 04:33:52;;;;;;;15.98;12.20;;;14.80;84.90;;;;;;5095943;28;20020;-76
2021/07/23 04:36:18;;;;;;;13.07;11.35;;;15.60;82.90;;;;;;5094800;28;20028;-76
2021/07/23 04:38:43;;;;;;;16.45;10.82;;;16.40;80.60;;;;;;5095041;28;20449;-77
2021/07/23 04:41:09;;;;;;;13.85;11.40;;;17.20;78.30;;;;;;5094581;28;20062;-77
2021/07/23 04:43:38;;;;;;;11.60;10.40;;;18.00;75.80;;;;;;5077748;28;20087;-76
2021/07/23 04:46:04;;;;;;;13.95;10.70;;;18.50;73.40;;;;;;5077965;28;20475;-82
2021/07/23 04:48:30;;;;;;;11.18;9.95;;;19.10;72.30;;;;;;5095047;28;20496;-77
2021/07/23 04:50:56;;;;;;;12.70;9.55;;;19.60;70.40;;;;;;5094199;28;20104;-77
2021/07/23 04:53:21;;;;;;;13.30;9.43;;;20.10;68.90;;;;;;5077269;28;20085;-77
2021/07/23 04:55:51;;;;;;;11.50;9.50;;;20.20;67.50;;;;;;5094296;28;20028;-77
2021/07/23 04:58:17;;;;;;;10.75;9.70;;;20.40;67.00;;;;;;5078330;28;20105;-77
2021/07/23 05:00:44;;;;;;;10.02;8.93;;;20.70;66.00;;;;;;5094204;28;20024;-77
2021/07/23 05:03:10;;;;;;;10.30;9.15;;;20.40;65.90;;;;;;5093570;28;20024;-78
2021/07/23 05:05:41;;;;;;;10.40;9.20;;;20.20;66.60;;;;;;5096071;28;20114;-77
2021/07/23 05:08:09;;;;;;;13.70;9.70;;;20.40;65.90;;;;;;5094160;28;20028;-83
2021/07/23 05:10:35;;;;;;;11.00;8.75;;;20.40;66.00;;;;;;5078093;28;20035;-77
2021/07/23 05:13:03;;;;;;;9.95;8.93;;;20.50;65.70;;;;;;5077943;28;20138;-77
2021/07/23 05:15:28;;;;;;;12.77;9.40;;;21.00;64.90;;;;;;5077196;28;20459;-78
2021/07/23 05:17:54;;;;;;;10.10;8.98;;;21.20;63.40;;;;;;5094555;28;20036;-77
2021/07/23 05:20:20;;;;;;;11.48;9.30;;;21.20;63.70;;;;;;5095286;28;20028;-77
2021/07/23 05:22:45;;;;;;;14.27;8.77;;;21.20;63.40;;;;;;5094810;28;20050;-77
2021/07/23 05:25:12;;;;;;;10.70;8.73;;;21.40;63.00;;;;;;5096406;28;20513;-85
2021/07/23 05:27:37;;;;;;;8.48;7.65;;;21.80;62.50;;;;;;5095032;28;20055;-76
2021/07/23 05:30:04;;;;;;;11.43;7.70;;;22.30;62.10;;;;;;5094954;28;20028;-76
2021/07/23 05:32:30;;;;;;;8.95;8.13;;;22.70;60.60;;;;;;5061185;28;20393;-76
2021/07/23 05:34:55;;;;;;;11.95;7.97;;;22.60;59.80;;;;;;5099137;28;20070;-75
2021/07/23 05:37:21;;;;;;;10.93;9.23;;;22.30;60.30;;;;;;5093503;28;20036;-75
2021/07/23 05:39:47;;;;;;;9.35;8.25;;;22.20;60.50;;;;;;5094671;28;20054;-77
2021/07/23 05:42:13;;;;;;;9.75;8.77;;;21.80;61.30;;;;;;5076590;28;20062;-80
2021/07/23 05:44:39;;;;;;;8.73;7.63;;;22.10;60.90;;;;;;5094862;28;20472;-76
2021/07/23 05:47:04;;;;;;;9.60;8.57;;;22.30;60.70;;;;;;5094442;28;20036;-79
2021/07/23 05:49:30;;;;;;;9.18;8.05;;;22.90;60.10;;;;;;5076252;28;20043;-76
2021/07/23 05:51:56;;;;;;;10.40;8.70;;;23.70;57.70;;;;;;5076561;28;20048;-75
2021/07/23 05:54:21;;;;;;;9.57;7.70;;;24.10;56.70;;;;;;5076052;28;20050;-75
2021/07/23 05:56:47;;;;;;;13.35;8.35;;;24.40;55.70;;;;;;5093273;28;20024;-76
2021/07/23 05:59:13;;;;;;;9.68;8.45;;;24.60;54.60;;;;;;5094311;28;20028;-81
2021/07/23 06:01:39;;;;;;;10.05;8.38;;;24.50;55.40;;;;;;5092549;28;20028;-75
2021/07/23 06:04:04;;;;;;;11.48;8.10;;;24.30;54.40;;;;;;5076045;28;20028;-77
2021/07/23 06:06:30;;;;;;;14.45;9.25;;;24.20;55.50;;;;;;5076173;28;20562;-78
2021/07/23 06:08:58;;;;;;;12.48;9.23;;;24.10;55.70;;;;;;5094540;28;20112;-77
2021/07/23 06:11:24;;;;;;;9.55;7.75;;;24.40;55.70;;;;;;5093018;28;20028;-77
2021/07/23 06:13:49;;;;;;;10.85;8.15;;;24.70;54.00;;;;;;5058539;28;20039;-76
2021/07/23 06:16:15;;;;;;;10.07;8.45;;;24.80;54.00;;;;;;5075895;28;20464;-80
2021/07/23 06:18:40;;;;;;;8.80;7.90;;;24.90;54.10;;;;;;5092437;28;20036;-76
2021/07/23 06:21:07;;;;;;;9.77;7.47;;;25.30;53.00;;;;;;5092339;28;20035;-76
2021/07/23 06:23:32;;;;;;;13.68;7.55;;;24.90;53.20;;;;;;5092488;28;20016;-75
2021/07/23 06:26:02;;;;;;;7.78;6.90;;;24.90;53.20;;;;;;5075288;28;20055;-78
2021/07/23 06:28:28;;;;;;;10.43;7.57;;;25.00;53.50;;;;;;5093395;28;20032;-75
2021/07/23 06:31:01;;;;;;;10.95;7.97;;;25.60;52.50;;;;;;5059825;28;20025;-77
2021/07/23 06:33:27;;;;;;;9.25;7.85;;;25.60;52.10;;;;;;5092968;28;20348;-77
2021/07/23 06:35:53;;;;;;;12.05;7.53;;;25.10;52.40;;;;;;5092014;28;20028;-77
2021/07/23 06:38:18;;;;;;;8.80;7.78;;;25.10;53.00;;;;;;5093401;28;20036;-83
2021/07/23 06:40:44;;;;;;;13.20;9.05;;;25.20;52.50;;;;;;5058907;28;20081;-76
2021/07/23 06:43:10;;;;;;;13.13;7.93;;;25.60;52.60;;;;;;5091844;28;20123;-76
2021/07/23 06:45:35;;;;;;;9.95;7.90;;;26.20;51.40;;;;;;5092841;28;20445;-78
2021/07/23 06:48:01;;;;;;;10.77;7.40;;;26.80;50.50;;;;;;5075030;28;20036;-75
2021/07/23 06:50:27;;;;;;;9.10;7.15;;;26.60;49.80;;;;;;5093084;28;20040;-78
2021/07/23 06:52:52;;;;;;;7.78;6.88;;;26.80;49.70;;;;;;5075014;28;20032;-83
2021/07/23 06:55:18;;;;;;;8.40;6.55;;;26.20;50.10;;;;;;5092052;28;20024;-83
2021/07/23 06:57:44;;;;;;;9.02;6.18;;;25.60;51.60;;;;;;5092933;28;20040;-78
2021/07/23 07:00:11;;;;;;;7.57;6.57;;;25.80;51.70;;;;;;5074984;28;20051;-78
2021/07/23 07:02:37;;;;;;;9.88;6.85;;;25.50;51.80;;;;;;5091970;28;20056;-78
2021/07/23 07:05:03;;;;;;;9.68;7.95;;;25.70;52.20;;;;;;5091632;28;20077;-77
2021/07/23 07:07:28;;;;;;;9.13;6.93;;;25.80;52.90;;;;;;5092450;28;20410;-77
2021/07/23 07:09:54;;;;;;;8.10;6.63;;;26.60;50.70;;;;;;5075292;28;20444;-77
2021/07/23 07:12:20;;;;;;;9.25;8.30;;;26.30;50.20;;;;;;5093023;28;20032;-80
2021/07/23 07:14:46;;;;;;;7.13;6.10;;;26.30;51.70;;;;;;5091603;28;20093;-81
2021/07/23 07:17:12;;;;;;;8.45;6.97;;;26.60;50.20;;;;;;5091410;28;20042;-79
2021/07/23 07:19:37;;;;;;;10.48;7.43;;;26.40;50.50;;;;;;5091474;28;20380;-78
2021/07/23 07:22:04;;;;;;;6.90;5.70;;;26.50;51.40;;;;;;5092501;28;20150;-78
2021/07/23 07:24:30;;;;;;;10.68;7.15;;;26.70;49.70;;;;;;5093457;28;20034;-79
2021/07/23 07:26:56;;;;;;;9.45;6.88;;;26.60;51.70;;;;;;5095732;28;20541;-77
2021/07/23 07:29:21;;;;;;;8.98;5.82;;;27.50;50.50;;;;;;5095109;28;20538;-79
2021/07/23 07:31:47;;;;;;;7.72;6.15;;;27.70;48.00;;;;;;5095566;28;20024;-78
2021/07/23 07:34:13;;;;;;;5.65;5.13;;;27.70;48.70;;;;;;5096435;28;20025;-80
2021/07/23 07:36:39;;;;;;;6.97;4.97;;;28.00;48.60;;;;;;5078215;28;20158;-84
2021/07/23 07:39:05;;;;;;;6.65;5.85;;;28.30;47.80;;;;;;5096383;28;20111;-77
2021/07/23 07:41:31;;;;;;;6.05;5.30;;;28.50;46.30;;;;;;5078164;28;20067;-80
2021/07/23 07:43:57;;;;;;;9.20;5.20;;;28.10;46.60;;;;;;5096063;28;20479;-77
2021/07/23 07:46:23;;;;;;;6.60;4.68;;;27.80;47.50;;;;;;5096903;28;20024;-78
2021/07/23 07:48:49;;;;;;;5.57;4.78;;;27.60;48.80;;;;;;5078600;28;20451;-77
2021/07/23 07:51:14;;;;;;;5.72;4.75;;;28.00;47.40;;;;;;5097171;28;20051;-77
2021/07/23 07:53:40;;;;;;;4.88;4.47;;;27.70;46.60;;;;;;5096060;28;20044;-79
2021/07/23 07:56:09;;;;;;;5.18;4.10;;;27.10;47.90;;;;;;5095573;28;20034;-82
2021/07/23 07:58:34;;;;;;;5.50;4.20;;;27.10;49.00;;;;;;5078043;28;20031;-77
2021/07/23 08:01:07;;;;;;;4.80;4.25;;;27.50;48.80;;;;;;5095681;28;20032;-76
2021/07/23 08:03:33;;;;;;;7.10;4.70;;;28.10;47.50;;;;;;5095523;28;20077;-78
2021/07/23 08:06:04;;;;;;;7.68;3.50;;;28.50;46.30;;;;;;5078476;28;20020;-81
2021/07/23 08:08:29;;;;;;;6.93;3.95;;;28.70;44.80;;;;;;5079425;28;20028;-80
2021/07/23 08:10:55;;;;;;;5.50;3.92;;;28.50;45.80;;;;;;5095431;28;20028;-76
2021/07/23 08:13:20;;;;;;;4.10;3.67;;;28.50;45.90;;;;;;5094668;28;20416;-76
2021/07/23 08:15:46;;;;;;;6.30;3.60;;;28.60;45.40;;;;;;5078039;28;20028;-76
2021/07/23 08:18:14;;;;;;;4.47;3.20;;;28.50;44.20;;;;;;5078461;28;20036;-76
2021/07/23 08:20:41;;;;;;;4.35;3.90;;;28.50;44.10;;;;;;5095095;28;20020;-75
2021/07/23 08:23:07;;;;;;;3.78;3.38;;;28.20;46.00;;;;;;5095647;28;20115;-75
2021/07/23 08:25:33;;;;;;;4.78;2.97;;;28.70;44.60;;;;;;5094686;28;20095;-83
2021/07/23 08:27:58;;;;;;;5.80;3.17;;;28.60;44.70;;;;;;5061145;28;20082;-76
2021/07/23 08:30:24;;;;;;;5.60;2.80;;;28.90;44.20;;;;;;5095062;28;20426;-77
2021/07/23 08:32:49;;;;;;;4.82;2.70;;;29.30;43.50;;;;;;5095376;28;20106;-75
2021/07/23 08:35:15;;;;;;;5.00;3.50;;;29.40;43.50;;;;;;5095471;28;20524;-76
2021/07/23 08:37:41;;;;;;;7.40;3.20;;;28.30;43.70;;;;;;5094544;28;20407;-75
2021/07/23 08:40:08;;;;;;;6.80;3.10;;;28.10;45.60;;;;;;5095636;28;20463;-76
2021/07/23 08:42:35;;;;;;;4.25;2.17;;;28.30;44.90;;;;;;5094284;28;20042;-78
2021/07/23 08:45:04;;;;;;;3.50;2.55;;;28.60;45.60;;;;;;5061095;28;20056;-76
2021/07/23 08:47:30;;;;;;;3.50;2.60;;;28.90;44.10;;;;;;5094453;28;20027;-78
2021/07/23 08:49:56;;;;;;;5.32;3.00;;;28.90;42.50;;;;;;5094311;28;20024;-77
2021/07/23 08:52:47;;;;;;;4.57;3.42;;;28.70;44.30;;;;;;5095467;28;20460;-76
2021/07/23 08:55:18;;;;;;;5.15;3.50;;;29.40;44.60;;;;;;5094528;28;20016;-78
2021/07/23 08:57:45;;;;;;;11.30;4.43;;;29.00;42.90;;;;;;5095537;28;20036;-77
2021/07/23 09:00:13;;;;;;;6.85;4.30;;;28.70;43.70;;;;;;5094518;28;20157;-77
2021/07/23 09:03:03;;;;;;;4.13;3.63;;;28.20;44.30;;;;;;5077593;28;20365;-80
2021/07/23 09:05:40;;;;;;;5.03;3.42;;;28.30;45.80;;;;;;5095649;28;20024;-77
2021/07/23 09:08:19;;;;;;;4.43;3.38;;;29.00;43.90;;;;;;5094855;28;20035;-76
2021/07/23 09:10:46;;;;;;;4.95;3.35;;;29.30;43.30;;;;;;5094159;28;20073;-75
2021/07/23 09:13:23;;;;;;;5.03;3.03;;;29.50;44.20;;;;;;5093719;28;20020;-75
2021/07/23 09:15:49;;;;;;;5.05;3.25;;;30.30;43.10;;;;;;5076405;28;20128;-76
2021/07/23 09:18:21;;;;;;;9.65;3.25;;;30.80;41.70;;;;;;5093594;28;20024;-77
2021/07/23 09:20:58;;;;;;;4.00;2.50;;;30.20;41.60;;;;;;5095464;28;20028;-77
2021/07/23 09:23:34;;;;;;;4.20;2.83;;;30.30;42.90;;;;;;5094147;28;20114;-74
2021/07/23 09:26:05;;;;;;;4.00;1.80;;;30.60;41.80;;;;;;5094389;28;20086;-80
2021/07/23 09:28:46;;;;;;;3.10;2.30;;;30.90;42.50;;;;;;5094417;28;20032;-76
2021/07/23 09:31:28;;;;;;;3.08;2.78;;;31.30;41.00;;;;;;5093428;28;20417;-77
2021/07/23 09:33:55;;;;;;;2.78;1.92;;;31.30;39.50;;;;;;5076862;28;20024;-77
2021/07/23 09:36:21;;;;;;;3.42;2.03;;;30.80;41.10;;;;;;5093448;28;20052;-82
2021/07/23 09:38:48;;;;;;;4.72;2.83;;;31.00;41.20;;;;;;5093079;28;20067;-78
2021/07/23 09:41:34;;;;;;;5.57;3.92;;;31.00;40.20;;;;;;5093378;28;20028;-77
2021/07/23 09:44:05;;;;;;;5.70;3.22;;;30.20;41.30;;;;;;5093185;28;20035;-75
2021/07/23 09:46:41;;;;;;;4.13;3.20;;;29.20;42.40;;;;;;5093353;28;20383;-76
2021/07/23 09:49:26;;;;;;;4.18;1.80;;;28.60;42.40;;;;;;5094583;28;20125;-78
2021/07/23 09:51:53;;;;;;;4.20;2.40;;;28.80;43.80;;;;;;5093257;28;20039;-77
2021/07/23 09:54:19;;;;;;;3.50;2.42;;;29.60;42.80;;;;;;5093056;28;20516;-75
2021/07/23 09:56:49;;;;;;;3.10;2.50;;;29.70;41.80;;;;;;5093111;28;20024;-83
2021/07/23 09:59:32;;;;;;;3.20;2.60;;;30.00;42.10;;;;;;5092934;28;20028;-77
2021/07/23 10:02:01;;;;;;;;;;;29.70;40.70;;;;;;5094079;28;20073;-77
2021/07/23 10:04:35;;;;;;;3.35;2.90;;;28.70;41.30;;;;;;5094656;28;19959;-77
2021/07/23 10:07:09;;;;;;;2.42;1.35;;;27.90;42.60;;;;;;5094447;28;20032;-77
2021/07/23 10:09:38;;;;;;;2.63;2.30;;;28.30;44.50;;;;;;5093981;28;20028;-82
2021/07/23 10:12:06;;;;;;;3.03;2.17;;;28.90;41.10;;;;;;5093608;28;20024;-77
2021/07/23 10:14:39;;;;;;;3.95;2.40;;;29.50;42.10;;;;;;5093721;28;20077;-78
2021/07/23 10:17:05;;;;;;;;;;;29.80;41.00;;;;;;5093016;28;20087;-78
2021/07/23 10:19:31;;;;;;;2.33;2.13;;;30.00;42.20;;;;;;5092719;28;20305;-76
2021/07/23 10:21:58;;;;;;;3.08;2.50;;;30.20;41.10;;;;;;5093761;28;20027;-76
2021/07/23 10:24:30;;;;;;;4.22;2.50;;;29.90;40.90;;;;;;5092411;28;20031;-77
2021/07/23 10:26:57;;;;;;;3.38;2.35;;;29.70;41.30;;;;;;5092235;28;20048;-76
2021/07/23 10:29:46;;;;;;;3.08;2.42;;;29.70;40.30;;;;;;5092435;28;20032;-77
2021/07/23 10:32:24;;;;;;;2.72;2.30;;;29.40;40.10;;;;;;5092949;28;20050;-78
2021/07/23 10:34:51;;;;;;;3.00;1.92;;;29.30;41.20;;;;;;5092488;28;20380;-83
2021/07/23 10:37:28;;;;;;;4.20;2.08;;;29.80;40.90;;;;;;5092860;28;20028;-76
2021/07/23 10:40:10;;;;;;;3.65;2.20;;;30.50;39.90;;;;;;5092607;28;20082;-76
2021/07/23 10:42:36;;;;;;;3.25;1.88;;;30.40;38.40;;;;;;5091914;28;20028;-76
2021/07/23 10:45:14;;;;;;;5.43;1.80;;;29.40;40.10;;;;;;5092066;28;20093;-79
2021/07/23 10:47:47;;;;;;;2.70;1.52;;;28.90;41.60;;;;;;5092467;28;20081;-84
2021/07/23 10:50:39;;;;;;;3.13;1.95;;;29.10;42.30;;;;;;5093330;28;20086;-80
2021/07/23 10:53:35;;;;;;;4.00;2.58;;;29.00;41.90;;;;;;5080097;28;20047;-82
2021/07/23 10:56:00;;;;;;;4.63;2.53;;;29.00;42.10;;;;;;5077549;28;20037;-77
2021/07/23 10:58:26;;;;;;;5.88;1.70;;;29.20;42.80;;;;;;5093839;28;20032;-80
2021/07/23 11:00:59;;;;;;;3.45;1.40;;;29.90;41.70;;;;;;5095093;28;20081;-84
2021/07/23 11:03:48;;;;;;;3.22;1.48;;;30.20;40.50;;;;;;5094623;28;20033;-77
2021/07/23 11:06:14;;;;;;;5.40;1.92;;;30.10;41.40;;;;;;5094561;28;20032;-78
2021/07/23 11:08:54;;;;;;;2.85;1.77;;;29.80;38.90;;;;;;5092805;28;20452;-77
2021/07/23 11:11:25;;;;;;;3.28;1.60;;;29.50;38.30;;;;;;5092667;28;20046;-78
2021/07/23 11:13:51;;;;;;;2.58;1.88;;;28.60;39.90;;;;;;5094211;28;20127;-80
2021/07/23 11:16:26;;;;;;;3.30;1.67;;;28.40;42.00;;;;;;5094558;28;20021;-79
2021/07/23 11:18:57;;;;;;;3.28;1.77;;;28.60;41.90;;;;;;5077448;28;20140;-80
2021/07/23 11:21:24;;;;;;;3.28;2.58;;;28.30;43.60;;;;;;5092952;28;20081;-80
2021/07/23 11:23:53;;;;;;;3.28;1.88;;;28.60;42.20;;;;;;5094883;28;20142;-80
2021/07/23 11:26:25;;;;;;;2.55;1.23;;;28.30;43.00;;;;;;5094402;28;20073;-76
2021/07/23 11:28:53;;;;;;;5.00;1.77;;;28.70;43.10;;;;;;5094719;28;20469;-84
2021/07/23 11:31:42;;;;;;;2.65;1.60;;;29.10;42.00;;;;;;5093504;28;20043;-78
2021/07/23 11:34:30;;;;;;;2.95;1.85;;;28.80;40.40;;;;;;5093374;28;20306;-81
2021/07/23 11:36:56;;;;;;;6.22;2.22;;;28.30;41.70;;;;;;5092893;28;20024;-79
2021/07/23 11:39:24;;;;;;;3.75;2.55;;;27.60;43.10;;;;;;5109885;28;20057;-77
2021/07/23 11:42:01;;;;;;;3.85;2.33;;;26.90;43.70;;;;;;5076734;28;20035;-82
2021/07/23 11:44:29;;;;;;;4.63;3.20;;;26.80;45.80;;;;;;5094129;28;20140;-76
2021/07/23 11:46:55;;;;;;;4.65;2.78;;;26.90;44.20;;;;;;5094598;28;20035;-78
2021/07/23 11:49:21;;;;;;;4.20;2.67;;;26.90;44.20;;;;;;5075322;28;20128;-77
2021/07/23 11:51:48;;;;;;;5.80;2.70;;;26.70;45.00;;;;;;5076316;28;20097;-76
2021/07/23 11:54:20;;;;;;;4.53;1.77;;;27.10;44.00;;;;;;5093766;28;20436;-81
2021/07/23 11:56:46;;;;;;;4.32;1.50;;;27.10;45.10;;;;;;5076125;28;20070;-76
2021/07/23 11:59:12;;;;;;;2.28;1.33;;;27.30;44.50;;;;;;5092774;28;20361;-75
2021/07/23 12:01:39;;;;;;;3.30;1.27;;;27.80;43.50;;;;;;5076576;28;20061;-76
2021/07/23 12:04:06;;;;;;;2.40;1.30;;;28.40;42.40;;;;;;5094870;28;20069;-76
2021/07/23 12:06:32;;;;;;;4.60;2.03;;;28.80;42.10;;;;;;5094162;28;20043;-76
2021/07/23 12:09:02;;;;;;;3.10;1.55;;;28.80;41.60;;;;;;5092688;28;20032;-77
2021/07/23 12:11:31;;;;;;;2.72;1.23;;;28.80;41.70;;;;;;5094578;28;20571;-80
2021/07/23 12:13:57;;;;;;;2.53;1.50;;;28.50;40.10;;;;;;5100423;28;20062;-84
2021/07/23 12:16:23;;;;;;;1.95;1.33;;;28.50;41.30;;;;;;5102633;28;20042;-79
2021/07/23 12:19:00;;;;;;;1.98;1.20;;;28.60;40.40;;;;;;5105412;28;20024;-80
2021/07/23 12:21:27;;;;;;;3.65;1.38;;;28.50;41.00;;;;;;5107566;28;20027;-77
2021/07/23 12:23:58;;;;;;;2.10;1.10;;;28.30;40.80;;;;;;5109898;28;20032;-75
2021/07/23 12:26:32;;;;;;;3.67;1.30;;;28.20;40.50;;;;;;5109231;28;20069;-78
2021/07/23 12:28:58;;;;;;;3.05;1.30;;;27.70;40.30;;;;;;5112927;28;20030;-82
2021/07/23 12:31:25;;;;;;;4.72;1.33;;;27.50;40.00;;;;;;5102959;28;20024;-77
2021/07/23 12:34:01;;;;;;;3.10;1.10;;;27.00;41.50;;;;;;5061803;28;20028;-78
2021/07/23 12:36:27;;;;;;;1.60;1.33;;;26.80;42.50;;;;;;5097006;28;20031;-77
2021/07/23 12:39:03;;;;;;;2.28;1.00;;;26.90;42.20;;;;;;5096098;28;20130;-78
2021/07/23 12:41:29;;;;;;;2.65;0.80;;;27.00;42.60;;;;;;5094539;28;20124;-77
2021/07/23 12:44:06;;;;;;;3.05;1.20;;;27.00;42.50;;;;;;5094838;28;20028;-77